createdAt,value
2019-01-20T00:02:14.258Z,-2.80
2019-01-20T00:04:40.867Z,-2.80
2019-01-20T00:07:08.299Z,-2.80
2019-01-20T00:09:34.940Z,-2.90
2019-01-20T00:12:01.518Z,-2.80
2019-01-20T00:14:28.059Z,-2.90
2019-01-20T00:16:54.644Z,-2.90
2019-01-20T00:19:21.305Z,-2.90
2019-01-20T00:21:47.937Z,-2.80
2019-01-20T00:24:14.467Z,-2.90
2019-01-20T00:26:41.172Z,-2.90
2019-01-20T00:29:07.806Z,-2.90
2019-01-20T00:31:34.388Z,-2.90
2019-01-20T00:34:00.962Z,-2.90
2019-01-20T00:36:27.469Z,-2.90
2019-01-20T00:38:54.047Z,-3.00
2019-01-20T00:41:24.299Z,-2.90
2019-01-20T00:43:49.067Z,-3.10
2019-01-20T00:46:15.793Z,-3.10
2019-01-20T00:48:42.392Z,-3.10
2019-01-20T00:51:09.211Z,-3.10
2019-01-20T00:53:35.821Z,-3.20
2019-01-20T00:56:03.031Z,-3.20
2019-01-20T00:58:29.635Z,-3.10
2019-01-20T01:00:56.279Z,-3.30
2019-01-20T01:03:23.089Z,-3.20
2019-01-20T01:05:49.892Z,-3.30
2019-01-20T01:08:16.512Z,-2.90
2019-01-20T01:10:43.127Z,-3.30
2019-01-20T01:13:09.721Z,-3.40
2019-01-20T01:15:36.359Z,-3.30
2019-01-20T01:18:02.971Z,-3.20
2019-01-20T01:20:29.604Z,-3.40
2019-01-20T01:22:56.190Z,-3.60
2019-01-20T01:25:22.813Z,-3.40
2019-01-20T01:27:49.409Z,-3.50
2019-01-20T01:30:21.604Z,-1.40
2019-01-20T01:32:48.291Z,-3.50
2019-01-20T01:35:15.124Z,-3.50
2019-01-20T01:37:41.735Z,-3.50
2019-01-20T01:40:11.052Z,-3.60
2019-01-20T01:42:37.639Z,-3.40
2019-01-20T01:45:07.896Z,-2.70
2019-01-20T01:47:34.559Z,-3.60
2019-01-20T01:50:01.185Z,-3.60
2019-01-20T01:52:27.724Z,-3.60
2019-01-20T01:54:54.322Z,-3.60
2019-01-20T01:57:20.961Z,-3.60
2019-01-20T01:59:48.139Z,-3.40
2019-01-20T02:02:14.796Z,-3.80
2019-01-20T02:04:41.409Z,-3.70
2019-01-20T02:07:08.019Z,-3.70
2019-01-20T02:09:34.586Z,-3.70
2019-01-20T02:12:01.205Z,-3.70
2019-01-20T02:14:47.632Z,-3.60
2019-01-20T02:17:14.280Z,-4.00
2019-01-20T02:19:40.843Z,-4.60
2019-01-20T02:22:07.499Z,-1.30
2019-01-20T02:24:34.081Z,-3.70
2019-01-20T02:27:00.685Z,-3.70
2019-01-20T02:29:27.272Z,-3.70
2019-01-20T02:31:53.909Z,-3.70
2019-01-20T02:34:20.393Z,-3.70
2019-01-20T02:36:46.989Z,-1.80
2019-01-20T02:39:13.588Z,-3.70
2019-01-20T02:41:40.198Z,-3.70
2019-01-20T02:44:06.798Z,-3.70
2019-01-20T02:49:19.812Z,-3.60
2019-01-20T02:51:46.347Z,-3.70
2019-01-20T02:54:13.252Z,-3.70
2019-01-20T02:56:39.763Z,-3.80
2019-01-20T02:59:06.357Z,-3.00
2019-01-20T03:01:33.093Z,-3.70
2019-01-20T03:04:00.653Z,-2.80
2019-01-20T03:06:27.308Z,-3.90
2019-01-20T03:08:53.786Z,-3.90
2019-01-20T03:11:20.372Z,-3.90
2019-01-20T03:13:46.992Z,-3.90
2019-01-20T03:16:13.602Z,-4.00
2019-01-20T03:18:40.325Z,-4.00
2019-01-20T03:21:07.133Z,-4.00
2019-01-20T03:23:35.668Z,-4.10
2019-01-20T03:26:04.061Z,-4.00
2019-01-20T03:28:30.984Z,-4.00
2019-01-20T03:30:57.570Z,-4.00
2019-01-20T03:33:24.228Z,-4.10
2019-01-20T03:35:50.817Z,-4.10
2019-01-20T03:38:17.464Z,-4.10
2019-01-20T03:40:44.075Z,-4.10
2019-01-20T03:43:10.689Z,-4.10
2019-01-20T03:45:37.301Z,-4.00
2019-01-20T03:48:03.934Z,-3.10
2019-01-20T03:50:30.552Z,-4.00
2019-01-20T03:52:57.182Z,-4.10
2019-01-20T03:55:23.766Z,-3.00
2019-01-20T03:57:50.380Z,-4.10
2019-01-20T04:00:19.924Z,-4.10
2019-01-20T04:02:48.522Z,-4.10
2019-01-20T04:05:15.123Z,-4.20
2019-01-20T04:07:41.772Z,-4.20
2019-01-20T04:10:11.481Z,-4.20
2019-01-20T04:12:38.125Z,-4.20
2019-01-20T04:15:06.300Z,-4.30
2019-01-20T04:17:32.918Z,-3.50
2019-01-20T04:19:59.501Z,-4.30
2019-01-20T04:22:26.037Z,-4.30
2019-01-20T04:24:52.646Z,-4.30
2019-01-20T04:27:19.159Z,-4.40
2019-01-20T04:29:45.760Z,-4.40
2019-01-20T04:32:12.350Z,-4.40
2019-01-20T04:34:38.903Z,-4.50
2019-01-20T04:37:05.612Z,-4.50
2019-01-20T04:39:32.475Z,-4.50
2019-01-20T04:41:58.971Z,-4.50
2019-01-20T04:44:25.439Z,-4.40
2019-01-20T04:46:51.902Z,-4.60
2019-01-20T04:49:20.730Z,-4.60
2019-01-20T04:51:47.267Z,-4.70
2019-01-20T04:54:14.272Z,-4.60
2019-01-20T04:56:40.943Z,-4.70
2019-01-20T04:59:07.360Z,-4.70
2019-01-20T05:01:33.984Z,-4.70
2019-01-20T05:04:00.735Z,-4.70
2019-01-20T05:06:27.345Z,-4.70
2019-01-20T05:08:53.970Z,-4.70
2019-01-20T05:11:20.581Z,-4.50
2019-01-20T05:13:47.180Z,-4.50
2019-01-20T05:16:13.838Z,-4.40
2019-01-20T05:18:40.438Z,-4.40
2019-01-20T05:21:06.953Z,-4.40
2019-01-20T05:23:33.544Z,-4.40
2019-01-20T05:26:00.140Z,-4.30
2019-01-20T05:28:26.792Z,-4.20
2019-01-20T05:30:53.479Z,-4.10
2019-01-20T05:33:20.161Z,-4.10
2019-01-20T05:35:46.802Z,-4.10
2019-01-20T05:38:13.439Z,-4.00
2019-01-20T05:40:39.956Z,-4.00
2019-01-20T05:43:06.602Z,-4.00
2019-01-20T05:45:33.270Z,-4.10
2019-01-20T05:47:59.799Z,-4.10
2019-01-20T05:50:26.289Z,-4.10
2019-01-20T05:52:52.898Z,-4.00
2019-01-20T05:55:19.611Z,-4.20
2019-01-20T05:57:46.231Z,-4.20
2019-01-20T06:00:23.892Z,-4.20
2019-01-20T06:02:50.505Z,-4.20
2019-01-20T06:05:17.110Z,-4.20
2019-01-20T06:07:43.721Z,-4.20
2019-01-20T06:10:11.800Z,-4.30
2019-01-20T06:12:38.325Z,-4.70
2019-01-20T06:15:08.505Z,-4.30
2019-01-20T06:17:35.287Z,-4.40
2019-01-20T06:20:03.535Z,-4.40
2019-01-20T06:22:29.906Z,-4.40
2019-01-20T06:24:56.534Z,-3.70
2019-01-20T06:27:22.994Z,-4.40
2019-01-20T06:29:49.504Z,-4.50
2019-01-20T06:32:15.898Z,-4.50
2019-01-20T06:34:42.528Z,-4.50
2019-01-20T06:37:09.430Z,-4.60
2019-01-20T06:39:36.170Z,-4.40
2019-01-20T06:42:02.748Z,-4.50
2019-01-20T06:44:29.169Z,-4.50
2019-01-20T06:46:55.661Z,-4.50
2019-01-20T06:49:22.193Z,-4.40
2019-01-20T06:51:48.786Z,-4.30
2019-01-20T06:54:15.395Z,-4.50
2019-01-20T06:56:41.869Z,-4.60
2019-01-20T06:59:08.511Z,-4.50
2019-01-20T07:01:34.891Z,-4.60
2019-01-20T07:04:01.495Z,-4.60
2019-01-20T07:06:28.080Z,-4.50
2019-01-20T07:08:54.596Z,-4.50
2019-01-20T07:11:21.178Z,-4.60
2019-01-20T07:13:47.796Z,-4.60
2019-01-20T07:16:15.688Z,-4.70
2019-01-20T07:18:42.375Z,-4.70
2019-01-20T07:21:09.269Z,-4.70
2019-01-20T07:23:35.764Z,-4.80
2019-01-20T07:26:02.349Z,-4.80
2019-01-20T07:28:29.006Z,-4.70
2019-01-20T07:30:55.586Z,-4.90
2019-01-20T07:33:22.308Z,-4.70
2019-01-20T07:35:48.898Z,-4.90
2019-01-20T07:38:15.429Z,-4.90
2019-01-20T07:40:42.033Z,-5.00
2019-01-20T07:43:08.630Z,-5.00
2019-01-20T07:45:35.247Z,-5.00
2019-01-20T07:48:01.835Z,-5.00
2019-01-20T07:50:28.551Z,-4.80
2019-01-20T07:52:55.329Z,-4.80
2019-01-20T07:55:21.975Z,-4.90
2019-01-20T07:57:48.657Z,-4.90
2019-01-20T08:00:20.166Z,-4.90
2019-01-20T08:02:46.746Z,-4.90
2019-01-20T08:05:13.541Z,-4.90
2019-01-20T08:07:40.186Z,-4.80
2019-01-20T08:10:16.412Z,-4.60
2019-01-20T08:12:43.107Z,-4.70
2019-01-20T08:15:11.824Z,-4.70
2019-01-20T08:17:38.435Z,-4.50
2019-01-20T08:20:13.047Z,-4.50
2019-01-20T08:22:39.646Z,-4.40
2019-01-20T08:25:07.879Z,-4.30
2019-01-20T08:27:34.454Z,-4.20
2019-01-20T08:30:01.108Z,-4.10
2019-01-20T08:32:27.594Z,-4.10
2019-01-20T08:34:54.218Z,-3.90
2019-01-20T08:37:20.812Z,-3.90
2019-01-20T08:39:47.276Z,-4.00
2019-01-20T08:42:13.730Z,-2.60
2019-01-20T08:44:40.360Z,-3.70
2019-01-20T08:47:07.993Z,-3.10
2019-01-20T08:49:34.519Z,-3.40
2019-01-20T08:52:01.109Z,-3.30
2019-01-20T08:54:27.783Z,-3.00
2019-01-20T08:56:54.370Z,-2.60
2019-01-20T08:59:20.948Z,-2.10
2019-01-20T09:01:47.375Z,-1.40
2019-01-20T09:04:13.985Z,-0.80
2019-01-20T09:06:40.572Z,0.00
2019-01-20T09:09:07.161Z,0.40
2019-01-20T09:11:33.766Z,1.00
2019-01-20T09:14:00.363Z,1.60
2019-01-20T09:16:27.025Z,1.90
2019-01-20T09:18:53.514Z,2.30
2019-01-20T09:21:20.076Z,2.80
2019-01-20T09:23:46.673Z,3.30
2019-01-20T09:26:13.323Z,3.70
2019-01-20T09:28:39.892Z,3.90
2019-01-20T09:31:06.547Z,4.10
2019-01-20T09:33:33.161Z,4.30
2019-01-20T09:35:59.746Z,4.50
2019-01-20T09:38:26.411Z,4.80
2019-01-20T09:40:53.160Z,5.20
2019-01-20T09:43:20.600Z,5.30
2019-01-20T09:45:49.318Z,5.40
2019-01-20T09:48:15.927Z,5.90
2019-01-20T09:50:42.565Z,6.20
2019-01-20T09:53:09.158Z,6.40
2019-01-20T09:55:35.775Z,6.30
2019-01-20T09:58:04.381Z,6.40
2019-01-20T10:00:33.849Z,6.50
2019-01-20T10:03:00.502Z,6.80
2019-01-20T10:05:27.331Z,7.10
2019-01-20T10:07:53.941Z,7.40
2019-01-20T10:10:20.575Z,7.30
2019-01-20T10:12:47.167Z,7.50
2019-01-20T10:15:15.899Z,7.70
2019-01-20T10:17:42.484Z,7.80
2019-01-20T10:20:12.708Z,7.70
2019-01-20T10:22:39.431Z,7.80
2019-01-20T10:25:06.769Z,7.60
2019-01-20T10:27:33.399Z,7.80
2019-01-20T10:29:59.978Z,8.30
2019-01-20T10:32:26.583Z,8.40
2019-01-20T10:34:53.890Z,8.80
2019-01-20T10:37:20.682Z,8.70
2019-01-20T10:39:47.264Z,8.90
2019-01-20T10:42:14.260Z,8.90
2019-01-20T10:44:40.952Z,9.10
2019-01-20T10:47:07.542Z,9.30
2019-01-20T10:49:34.060Z,9.30
2019-01-20T10:52:02.093Z,9.50
2019-01-20T10:54:28.500Z,9.60
2019-01-20T10:56:55.014Z,9.30
2019-01-20T10:59:21.609Z,9.60
2019-01-20T11:01:48.253Z,9.50
2019-01-20T11:04:14.845Z,9.50
2019-01-20T11:06:41.516Z,9.30
2019-01-20T11:09:08.247Z,9.20
2019-01-20T11:11:34.836Z,9.40
2019-01-20T11:14:01.540Z,9.00
2019-01-20T11:16:28.279Z,9.50
2019-01-20T11:18:54.866Z,9.70
2019-01-20T11:21:21.497Z,10.00
2019-01-20T11:23:48.397Z,9.40
2019-01-20T11:26:14.929Z,9.70
2019-01-20T11:28:42.687Z,9.70
2019-01-20T11:31:09.296Z,9.40
2019-01-20T11:33:35.944Z,8.80
2019-01-20T11:36:03.401Z,8.90
2019-01-20T11:38:30.041Z,9.10
2019-01-20T11:40:56.666Z,9.30
2019-01-20T11:43:23.317Z,9.20
2019-01-20T11:45:49.936Z,8.50
2019-01-20T11:48:16.569Z,8.20
2019-01-20T11:50:43.174Z,7.60
2019-01-20T11:53:11.267Z,7.00
2019-01-20T11:55:37.917Z,6.50
2019-01-20T11:58:04.668Z,6.20
2019-01-20T12:00:33.664Z,5.80
2019-01-20T12:03:01.703Z,5.20
2019-01-20T12:05:29.635Z,5.20
2019-01-20T12:07:56.175Z,5.00
2019-01-20T12:10:22.863Z,4.70
2019-01-20T12:12:51.441Z,4.60
2019-01-20T12:15:18.042Z,4.50
2019-01-20T12:17:44.711Z,4.40
2019-01-20T12:20:15.526Z,4.20
2019-01-20T12:22:42.589Z,4.30
2019-01-20T12:25:12.410Z,4.00
2019-01-20T12:27:39.048Z,3.90
2019-01-20T12:30:15.309Z,3.80
2019-01-20T12:32:41.978Z,3.70
2019-01-20T12:35:08.568Z,3.80
2019-01-20T12:37:35.186Z,3.90
2019-01-20T12:40:02.387Z,3.90
2019-01-20T12:42:29.380Z,4.00
2019-01-20T12:44:55.995Z,4.10
2019-01-20T12:47:22.637Z,4.10
2019-01-20T12:49:49.346Z,4.20
2019-01-20T12:52:15.972Z,4.30
2019-01-20T12:54:42.652Z,2.20
2019-01-20T12:57:09.775Z,4.40
2019-01-20T12:59:36.419Z,3.40
2019-01-20T13:02:04.815Z,4.40
2019-01-20T13:04:31.599Z,4.60
2019-01-20T13:06:58.233Z,4.70
2019-01-20T13:09:24.788Z,4.80
2019-01-20T13:11:51.360Z,5.00
2019-01-20T13:14:19.092Z,4.90
2019-01-20T13:16:45.506Z,5.10
2019-01-20T13:19:12.058Z,5.10
2019-01-20T13:21:38.671Z,5.20
2019-01-20T13:24:05.384Z,5.20
2019-01-20T13:26:31.989Z,5.10
2019-01-20T13:28:58.507Z,5.10
2019-01-20T13:31:24.991Z,5.20
2019-01-20T13:33:51.597Z,5.30
2019-01-20T13:36:18.279Z,5.40
2019-01-20T13:38:44.821Z,5.40
2019-01-20T13:41:11.615Z,5.50
2019-01-20T13:43:38.187Z,5.90
2019-01-20T13:46:04.777Z,6.00
2019-01-20T13:48:31.423Z,6.10
2019-01-20T13:50:58.045Z,6.20
2019-01-20T13:53:24.549Z,6.10
2019-01-20T13:55:51.141Z,6.00
2019-01-20T13:58:17.788Z,6.00
2019-01-20T14:00:44.370Z,5.90
2019-01-20T14:03:11.033Z,5.90
2019-01-20T14:05:37.622Z,6.00
2019-01-20T14:08:04.219Z,6.00
2019-01-20T14:10:30.665Z,6.00
2019-01-20T14:12:57.046Z,5.80
2019-01-20T14:15:23.653Z,6.10
2019-01-20T14:17:50.337Z,6.30
2019-01-20T14:20:19.691Z,6.60
2019-01-20T14:22:46.267Z,6.90
2019-01-20T14:25:22.006Z,6.90
2019-01-20T14:27:48.625Z,7.00
2019-01-20T14:30:18.155Z,6.90
2019-01-20T14:32:44.729Z,6.80
2019-01-20T14:35:11.445Z,6.60
2019-01-20T14:37:37.949Z,6.30
2019-01-20T14:40:10.001Z,6.40
2019-01-20T14:42:36.567Z,6.40
2019-01-20T14:45:06.309Z,6.20
2019-01-20T14:47:32.690Z,6.10
2019-01-20T14:49:59.320Z,5.90
2019-01-20T14:52:25.784Z,5.60
2019-01-20T14:54:52.335Z,5.30
2019-01-20T14:57:18.935Z,5.10
2019-01-20T14:59:46.736Z,4.90
2019-01-20T15:02:13.515Z,4.70
2019-01-20T15:04:39.945Z,4.40
2019-01-20T15:07:06.618Z,4.10
2019-01-20T15:09:33.257Z,3.90
2019-01-20T15:11:59.860Z,3.60
2019-01-20T15:14:26.330Z,3.40
2019-01-20T15:16:52.928Z,3.30
2019-01-20T15:19:19.508Z,2.90
2019-01-20T15:21:46.051Z,2.70
2019-01-20T15:24:12.784Z,2.40
2019-01-20T15:26:39.411Z,2.20
2019-01-20T15:29:06.020Z,2.20
2019-01-20T15:31:32.664Z,2.10
2019-01-20T15:33:59.144Z,1.90
2019-01-20T15:36:25.660Z,1.90
2019-01-20T15:38:52.241Z,1.80
2019-01-20T15:41:18.777Z,1.80
2019-01-20T15:43:45.215Z,1.80
2019-01-20T15:46:12.022Z,1.80
2019-01-20T15:48:38.615Z,1.60
2019-01-20T15:51:05.442Z,1.50
2019-01-20T15:53:31.972Z,1.40
2019-01-20T15:55:58.585Z,1.30
2019-01-20T15:58:24.988Z,1.20
2019-01-20T16:00:51.625Z,1.10
2019-01-20T16:03:19.340Z,1.10
2019-01-20T16:05:45.934Z,1.10
2019-01-20T16:08:12.550Z,1.00
2019-01-20T16:10:39.294Z,1.00
2019-01-20T16:13:05.861Z,0.80
2019-01-20T16:15:33.188Z,0.70
2019-01-20T16:17:59.769Z,0.70
2019-01-20T16:20:28.712Z,0.60
2019-01-20T16:22:55.515Z,0.50
2019-01-20T16:25:30.518Z,0.50
2019-01-20T16:27:57.109Z,0.50
2019-01-20T16:30:26.452Z,0.50
2019-01-20T16:32:53.060Z,0.50
2019-01-20T16:35:19.681Z,0.40
2019-01-20T16:37:47.191Z,0.40
2019-01-20T16:40:16.678Z,0.20
2019-01-20T16:42:43.224Z,0.10
2019-01-20T16:45:16.396Z,0.00
2019-01-20T16:47:43.048Z,-0.10
2019-01-20T16:50:13.235Z,-0.30
2019-01-20T16:52:39.853Z,-0.30
2019-01-20T16:55:08.454Z,-0.30
2019-01-20T16:57:35.331Z,-0.50
2019-01-20T17:00:05.541Z,-0.50
2019-01-20T17:02:32.184Z,-0.50
2019-01-20T17:04:58.670Z,-0.60
2019-01-20T17:07:25.304Z,-0.60
2019-01-20T17:09:51.757Z,-0.70
2019-01-20T17:12:18.341Z,-0.60
2019-01-20T17:14:46.755Z,-0.70
2019-01-20T17:17:13.256Z,-0.70
2019-01-20T17:19:39.672Z,-0.70
2019-01-20T17:22:06.303Z,-0.80
2019-01-20T17:24:32.827Z,-0.80
2019-01-20T17:27:01.379Z,0.00
2019-01-20T17:29:28.018Z,-1.00
2019-01-20T17:31:54.797Z,-1.00
2019-01-20T17:34:21.494Z,-1.10
2019-01-20T17:36:48.168Z,-1.20
2019-01-20T17:39:14.654Z,-1.20
2019-01-20T17:41:42.619Z,-1.20
2019-01-20T17:44:09.179Z,-1.10
2019-01-20T17:46:36.008Z,-1.20
2019-01-20T17:49:02.729Z,-1.20
2019-01-20T17:51:31.414Z,-1.20
2019-01-20T17:53:58.003Z,-1.30
2019-01-20T17:56:24.649Z,-1.30
2019-01-20T17:58:51.287Z,-1.30
2019-01-20T18:01:17.993Z,-1.20
2019-01-20T18:03:44.576Z,-1.10
2019-01-20T18:06:11.218Z,-1.20
2019-01-20T18:08:37.819Z,-1.10
2019-01-20T18:11:04.459Z,-1.10
2019-01-20T18:13:31.057Z,-1.10
2019-01-20T18:15:57.724Z,-1.00
2019-01-20T18:18:24.329Z,-1.10
2019-01-20T18:20:50.986Z,-1.10
2019-01-20T18:23:17.765Z,-1.10
2019-01-20T18:25:44.384Z,-1.20
2019-01-20T18:28:14.167Z,-1.20
2019-01-20T18:30:41.685Z,-1.20
2019-01-20T18:33:08.374Z,-1.20
2019-01-20T18:35:34.960Z,-1.20
2019-01-20T18:38:01.600Z,-1.20
2019-01-20T18:40:28.197Z,-1.20
2019-01-20T18:42:57.715Z,-1.30
2019-01-20T18:45:30.167Z,-1.30
2019-01-20T18:47:56.821Z,-1.30
2019-01-20T18:50:25.527Z,-1.40
2019-01-20T18:52:52.262Z,-1.40
2019-01-20T18:55:19.903Z,-1.40
2019-01-20T18:57:46.738Z,-1.40
2019-01-20T19:00:27.886Z,-1.40
2019-01-20T19:02:54.514Z,-1.40
2019-01-20T19:05:21.113Z,-1.50
2019-01-20T19:07:47.836Z,-1.50
2019-01-20T19:10:19.717Z,-1.60
2019-01-20T19:12:46.376Z,-1.60
2019-01-20T19:15:15.076Z,-1.70
2019-01-20T19:17:41.752Z,-1.70
2019-01-20T19:20:16.587Z,-1.80
2019-01-20T19:22:43.538Z,-1.80
2019-01-20T19:25:10.255Z,-1.80
2019-01-20T19:27:36.826Z,-1.90
2019-01-20T19:30:13.027Z,-1.90
2019-01-20T19:32:39.647Z,-1.90
2019-01-20T19:35:08.224Z,-1.90
2019-01-20T19:37:34.883Z,-2.00
2019-01-20T19:40:01.480Z,-2.00
2019-01-20T19:42:28.117Z,-2.00
2019-01-20T19:44:54.730Z,-1.90
2019-01-20T19:47:21.493Z,-2.00
2019-01-20T19:49:48.103Z,-1.90
2019-01-20T19:52:14.758Z,-2.00
2019-01-20T19:54:41.619Z,-2.10
2019-01-20T19:57:08.446Z,-2.10
2019-01-20T19:59:35.020Z,-2.10
2019-01-20T20:02:01.698Z,-2.20
2019-01-20T20:04:28.337Z,-2.10
2019-01-20T20:06:55.889Z,-2.20
2019-01-20T20:09:22.487Z,-2.20
2019-01-20T20:11:49.155Z,-2.20
2019-01-20T20:14:15.743Z,-2.20
2019-01-20T20:16:42.335Z,-1.40
2019-01-20T20:19:09.166Z,-2.20
2019-01-20T20:21:37.630Z,-2.30
2019-01-20T20:24:04.240Z,-2.30
2019-01-20T20:26:31.438Z,-1.70
2019-01-20T20:28:58.759Z,-2.40
2019-01-20T20:31:25.806Z,-2.20
2019-01-20T20:33:52.529Z,-1.30
2019-01-20T20:36:20.922Z,-2.70
2019-01-20T20:38:47.580Z,-2.60
2019-01-20T20:41:14.171Z,-2.60
2019-01-20T20:43:40.833Z,-2.60
2019-01-20T20:46:07.449Z,-2.70
2019-01-20T20:48:34.084Z,-2.70
2019-01-20T20:51:00.728Z,-2.80
2019-01-20T20:53:27.380Z,-2.80
2019-01-20T20:55:54.092Z,-2.80
2019-01-20T20:58:20.713Z,-2.90
2019-01-20T21:00:47.323Z,-2.70
2019-01-20T21:03:13.988Z,-2.80
2019-01-20T21:05:41.315Z,-2.80
2019-01-20T21:08:07.981Z,-0.90
2019-01-20T21:10:34.778Z,-2.80
2019-01-20T21:13:01.425Z,-2.90
2019-01-20T21:15:28.062Z,-2.80
2019-01-20T21:17:54.721Z,-2.80
2019-01-20T21:20:22.820Z,-2.80
2019-01-20T21:22:49.589Z,-2.90
2019-01-20T21:25:16.197Z,-2.90
2019-01-20T21:27:42.840Z,-2.40
2019-01-20T21:30:16.483Z,-3.00
2019-01-20T21:32:42.967Z,-3.00
2019-01-20T21:35:10.065Z,-3.00
2019-01-20T21:37:36.942Z,-3.10
2019-01-20T21:40:06.427Z,-3.10
2019-01-20T21:42:33.064Z,-3.10
2019-01-20T21:44:59.650Z,-3.20
2019-01-20T21:47:26.316Z,-2.90
2019-01-20T21:49:53.122Z,-3.20
2019-01-20T21:52:19.774Z,-3.30
2019-01-20T21:54:46.272Z,-3.30
2019-01-20T21:57:13.022Z,-3.30
2019-01-20T21:59:39.730Z,-3.30
2019-01-20T22:02:06.369Z,-3.30
2019-01-20T22:04:33.007Z,-3.40
2019-01-20T22:06:59.497Z,-3.20
2019-01-20T22:09:26.110Z,-3.40
2019-01-20T22:11:52.739Z,-3.40
2019-01-20T22:14:19.164Z,-3.40
2019-01-20T22:16:52.509Z,-3.30
2019-01-20T22:19:14.565Z,-3.50
2019-01-20T22:21:41.167Z,-3.30
2019-01-20T22:24:07.809Z,-3.50
2019-01-20T22:26:34.409Z,-3.40
2019-01-20T22:29:01.070Z,-3.30
2019-01-20T22:31:27.711Z,-3.50
2019-01-20T22:33:54.330Z,-3.50
2019-01-20T22:36:20.965Z,-3.10
2019-01-20T22:38:47.501Z,-3.30
2019-01-20T22:41:14.061Z,-2.50
2019-01-20T22:43:40.760Z,-3.70
2019-01-20T22:46:07.338Z,-3.70
2019-01-20T22:48:33.878Z,-3.40
2019-01-20T22:51:00.463Z,-3.70
2019-01-20T22:53:27.177Z,-3.60
2019-01-20T22:55:53.795Z,-3.80
2019-01-20T22:58:20.439Z,-3.90
2019-01-20T23:00:51.353Z,-3.90
2019-01-20T23:03:18.002Z,-3.90
2019-01-20T23:05:45.517Z,-3.90
2019-01-20T23:08:12.231Z,-4.00
2019-01-20T23:10:38.988Z,-3.80
2019-01-20T23:13:05.805Z,-4.00
2019-01-20T23:15:32.392Z,-4.00
2019-01-20T23:17:59.101Z,-4.10
2019-01-20T23:20:25.687Z,-4.10
2019-01-20T23:22:53.355Z,-3.80
2019-01-20T23:25:19.879Z,-4.40
2019-01-20T23:27:46.503Z,-4.30
2019-01-20T23:30:14.962Z,-4.70
2019-01-20T23:32:41.668Z,-4.30
2019-01-20T23:35:08.309Z,-4.30
2019-01-20T23:37:34.894Z,-4.40
2019-01-20T23:40:01.548Z,-4.40
2019-01-20T23:42:28.087Z,-4.40
2019-01-20T23:44:54.891Z,-4.30
2019-01-20T23:47:21.409Z,-4.30
2019-01-20T23:49:49.252Z,-4.30
2019-01-20T23:52:15.881Z,-4.30
2019-01-20T23:54:42.528Z,-4.40
2019-01-20T23:57:09.205Z,-4.40
2019-01-20T23:59:35.844Z,-4.40
